Terminal Aerodrome Forecast
Issued by NWS Louisville, KY

Home | Current Version | Previous Version | Text Only | Print | Product List | Glossary On
Versions: 1 2 3 4 5 6 7 8 9 10 11 12 13 14 15 16 17 18
000
FTUS43 KLMK 290500
TAFBWG
TAF
KBWG 290520Z 2906/3006 19011KT P6SM SCT250
     FM291200 19010G17KT P6SM BKN035
     FM291800 20014G20KT P6SM VCSH BKN025
     FM300000 19012KT P6SM BKN025=

USA.gov is the U.S. government's official web portal to all federal, state and local government web resources and services.